Harrisville, MI

2:42 PM EDT on May 29, 2015 (GMT -0400)
3 Miles N. of Oscoda, along Lk. Huron | | Change Station
CLOSE
Current Station
Personal Weather Station
Location: Oscoda, MI
Elevation: 610 ft
Nearby Weather Stations

Elev 610 ft 44.47 °N, 83.32 °W | Updated 4 minutes ago

Partly Cloudy
Partly Cloudy
85.3 °F
Feels Like 82 °F
N
1.0
Wind Variable Wind from SE
Gusts 4.0 mph

Today
High -- | Low -- °F
--% Chance of Precip.
Yesterday
High -- | Low -- °F
Precip. -- in
5:53 AM 9:08 PM
Waxing Gibbous, 85% visible
Pressure 30.02 in
Visibility 10.0 miles
Clouds Clear
Heat Index 82 °F
Dew Point 37 °F
Humidity 18%
Rainfall -999.00 in
Snow Depth Not available.
UV 10 out of 12
Pollen 7.30 out of 12
Air Quality Not available.
Flu Activity Sporadic
METAR KOSC 291834Z AUTO 21013G22KT 10SM CLR 27/17 A3002 RMK AO2 T02790175

More Conditions Fewer Conditions

Pressure 30.02 in
Visibility 10.0 miles
Clouds Clear
Heat Index 82 °F
Dew Point 37 °F
Humidity 18%
Rainfall -999.00 in
Snow Depth Not available.
UV 10 out of 12
Pollen 7.30 out of 12
Air Quality Not available.
Flu Activity Sporadic
METAR KOSC 291834Z AUTO 21013G22KT 10SM CLR 27/17 A3002 RMK AO2 T02790175

More Conditions Fewer Conditions

Nowcast | as of 1:00 PM EDT on May 29, 2015

At 2 PM...partly cloudy. Scattered thunderstorms. Temperature 76. South winds 11 mph. At 4 PM...mostly cloudy. Scattered thunderstorms. Temperature 77. South winds 9 mph. At 6 PM...mostly cloudy. Scattered thunderstorms. Temperature 76. South winds 7 mph. At 8 PM...mostly cloudy. Scattered thunderstorms. Temperature 74. Southeast winds 7 mph.

×

10-Day Weather Forecast

Almanac

Astronomy

May. 29, 2015 Rise Set
Actual Time
Civil Twilight
Nautical Twilight
Astronomical Twilight
Moon
Length of Visible Light
Length of Day
Tomorrow will be .
, % of the Moon is Illuminated

Today's Extremes

State Highs State Lows

Community

WunderPhotos

Upload Photos

1,825,322 photos uploaded!

WunderBlogs® & News

Nearby

Air Quality

  Air Quality AQ Index Pollutant
Not available.

Snow Depth

Station Depth Elevation

Earthquake Activity

City Distance Mag. Time & Date
Minimum magnitude displayed is 2.5.

Coastal Water Temperatures

Place Temperature

Stations

Nearby Weather Stations

Station Location Temp. Windchill Dew Point Humidity Wind Precip. Elev Updated Type